Time;durP1;ratioP1;P1;durP2;ratioP2;P2;SDS_P1;SDS_P2;PMS_P1;PMS_P2;Temp;Humidity;BMP_temperature;BMP_pressure;BME280_temperature;BME280_humidity;BME280_pressure;Samples;Min_cycle;Max_cycle;Signal;HPM_P1;HPM_P2
2023/01/02 00:04:29;;;;;;;18.23;12.52;;;;;;;;;;10109651;28;20395;-67
2023/01/02 00:09:24;;;;;;;26.98;17.70;;;;;;;;;;10112806;28;20076;-67
2023/01/02 00:14:18;;;;;;;29.05;18.02;;;;;;;;;;10112684;28;20049;-67
2023/01/02 00:19:12;;;;;;;23.85;16.73;;;;;;;;;;10113735;28;20124;-67
2023/01/02 00:24:07;;;;;;;22.13;14.98;;;;;;;;;;10112669;28;20075;-67
2023/01/02 00:29:01;;;;;;;17.67;14.32;;;;;;;;;;10112115;28;20191;-67
2023/01/02 00:33:55;;;;;;;24.77;17.27;;;;;;;;;;10112113;28;20527;-67
2023/01/02 00:38:49;;;;;;;18.70;13.82;;;;;;;;;;10111674;28;20049;-67
2023/01/02 00:43:43;;;;;;;18.42;13.68;;;;;;;;;;10111436;28;20421;-67
2023/01/02 00:48:36;;;;;;;15.68;12.18;;;;;;;;;;10112362;28;20057;-67
2023/01/02 00:53:30;;;;;;;13.88;11.63;;;;;;;;;;10111197;28;20521;-67
2023/01/02 00:58:23;;;;;;;17.27;12.60;;;;;;;;;;10111959;28;20416;-67
2023/01/02 01:03:17;;;;;;;25.50;17.30;;;;;;;;;;10112134;28;20044;-67
2023/01/02 01:08:11;;;;;;;29.33;18.88;;;;;;;;;;10111054;28;20071;-67
2023/01/02 01:13:05;;;;;;;28.98;18.63;;;;;;;;;;10110357;28;20056;-67
2023/01/02 01:17:59;;;;;;;34.67;22.30;;;;;;;;;;10110231;28;20053;-67
2023/01/02 01:22:52;;;;;;;34.90;24.35;;;;;;;;;;10110732;28;20131;-67
2023/01/02 01:27:46;;;;;;;37.67;25.25;;;;;;;;;;10109722;28;20065;-67
2023/01/02 01:32:39;;;;;;;44.92;25.65;;;;;;;;;;10109638;28;20412;-67
2023/01/02 01:37:33;;;;;;;36.28;23.35;;;;;;;;;;10110693;28;20045;-67
2023/01/02 01:42:34;;;;;;;40.28;24.08;;;;;;;;;;10109580;28;20053;-67
2023/01/02 01:47:39;;;;;;;33.78;22.38;;;;;;;;;;10109937;28;20060;-67
2023/01/02 01:52:35;;;;;;;37.42;22.35;;;;;;;;;;10108560;28;20053;-67
2023/01/02 01:57:53;;;;;;;35.23;23.23;;;;;;;;;;10097128;28;20048;-68
2023/01/02 02:02:49;;;;;;;43.35;23.27;;;;;;;;;;10108996;28;20056;-67
2023/01/02 02:07:49;;;;;;;38.65;22.00;;;;;;;;;;10107858;28;20465;-67
2023/01/02 02:12:43;;;;;;;38.33;24.42;;;;;;;;;;10108402;28;20409;-67
2023/01/02 02:18:24;;;;;;;30.77;21.80;;;;;;;;;;10108194;28;20053;-67
2023/01/02 02:23:31;;;;;;;33.92;20.35;;;;;;;;;;10056563;28;20487;-67
2023/01/02 02:28:42;;;;;;;34.25;22.73;;;;;;;;;;10105682;28;20468;-67
2023/01/02 02:33:58;;;;;;;34.90;25.08;;;;;;;;;;10107503;28;20120;-66
2023/01/02 02:39:10;;;;;;;30.55;20.40;;;;;;;;;;10113751;28;20075;-67
2023/01/02 02:44:19;;;;;;;31.58;21.10;;;;;;;;;;10108039;28;20064;-67
2023/01/02 02:49:23;;;;;;;35.75;21.83;;;;;;;;;;10106420;28;20071;-67
2023/01/02 02:54:28;;;;;;;38.05;22.42;;;;;;;;;;10105766;28;20056;-66
2023/01/02 02:59:22;;;;;;;31.50;21.05;;;;;;;;;;10106376;28;20075;-67
2023/01/02 03:04:24;;;;;;;30.92;22.67;;;;;;;;;;10101361;28;20144;-67
2023/01/02 03:09:18;;;;;;;32.28;21.75;;;;;;;;;;10106500;28;20071;-67
2023/01/02 03:14:20;;;;;;;37.17;23.25;;;;;;;;;;10106374;28;20044;-67
2023/01/02 03:19:39;;;;;;;38.75;23.85;;;;;;;;;;10104021;28;20059;-67
2023/01/02 03:24:34;;;;;;;38.15;24.33;;;;;;;;;;10105654;28;20056;-67
2023/01/02 03:29:32;;;;;;;35.47;22.55;;;;;;;;;;10089232;28;20446;-67
2023/01/02 03:34:30;;;;;;;39.08;24.77;;;;;;;;;;10105834;28;20126;-67
2023/01/02 03:39:27;;;;;;;38.05;23.63;;;;;;;;;;10105550;28;20124;-67
2023/01/02 03:44:23;;;;;;;38.28;24.42;;;;;;;;;;10093637;28;20056;-67
2023/01/02 03:49:32;;;;;;;32.92;21.50;;;;;;;;;;10105868;28;20084;-67
2023/01/02 03:54:26;;;;;;;35.30;21.58;;;;;;;;;;10091004;28;20091;-67
2023/01/02 03:59:54;;;;;;;33.65;21.77;;;;;;;;;;10118747;28;20076;-67
2023/01/02 04:04:59;;;;;;;31.80;21.73;;;;;;;;;;10102645;28;20131;-66
2023/01/02 04:09:52;;;;;;;37.67;23.65;;;;;;;;;;10104699;28;20120;-67
2023/01/02 04:14:49;;;;;;;34.17;22.52;;;;;;;;;;10104662;28;20140;-67
2023/01/02 04:19:51;;;;;;;38.25;23.98;;;;;;;;;;10094049;28;20040;-67
2023/01/02 04:24:49;;;;;;;38.47;23.00;;;;;;;;;;10104693;28;20057;-67
2023/01/02 04:29:42;;;;;;;33.35;21.52;;;;;;;;;;10113371;28;20041;-67
2023/01/02 04:34:36;;;;;;;30.58;19.13;;;;;;;;;;10104312;28;20116;-67
2023/01/02 04:39:30;;;;;;;21.67;15.15;;;;;;;;;;10103864;28;20056;-67
2023/01/02 04:44:24;;;;;;;25.08;16.27;;;;;;;;;;10104769;28;20049;-67
2023/01/02 04:49:18;;;;;;;29.17;17.42;;;;;;;;;;10094378;28;20049;-67
2023/01/02 04:54:12;;;;;;;29.90;17.85;;;;;;;;;;10110976;28;20505;-66
2023/01/02 04:59:06;;;;;;;24.98;17.80;;;;;;;;;;10099741;28;20103;-67
2023/01/02 05:04:00;;;;;;;26.40;16.85;;;;;;;;;;10102190;28;20540;-64
2023/01/02 05:08:54;;;;;;;25.10;16.58;;;;;;;;;;10101102;28;20053;-69
2023/01/02 05:13:49;;;;;;;23.25;16.77;;;;;;;;;;10104237;28;20049;-70
2023/01/02 05:18:42;;;;;;;21.92;16.17;;;;;;;;;;10101465;28;20052;-70
2023/01/02 05:23:48;;;;;;;22.27;15.52;;;;;;;;;;10090615;28;20073;-69
2023/01/02 05:28:41;;;;;;;25.08;16.92;;;;;;;;;;10101717;28;20123;-69
2023/01/02 05:33:35;;;;;;;22.67;15.30;;;;;;;;;;10098968;28;20498;-66
2023/01/02 05:38:31;;;;;;;24.42;14.88;;;;;;;;;;10100841;28;20064;-67
2023/01/02 05:43:25;;;;;;;25.65;16.52;;;;;;;;;;10096778;28;20052;-66
2023/01/02 05:48:19;;;;;;;27.42;17.00;;;;;;;;;;10100339;28;20051;-66
2023/01/02 05:53:12;;;;;;;24.92;15.52;;;;;;;;;;10103712;28;20115;-68
2023/01/02 05:58:07;;;;;;;20.52;14.75;;;;;;;;;;10096702;28;20580;-68
2023/01/02 06:03:01;;;;;;;28.10;16.13;;;;;;;;;;10095738;28;20044;-71
2023/01/02 06:07:55;;;;;;;28.00;17.73;;;;;;;;;;10100228;28;20098;-67
2023/01/02 06:12:49;;;;;;;24.60;16.05;;;;;;;;;;10108103;28;20394;-67
2023/01/02 06:17:43;;;;;;;27.02;15.88;;;;;;;;;;10107542;28;20052;-66
2023/01/02 06:22:37;;;;;;;26.90;14.80;;;;;;;;;;10107408;28;20512;-66
2023/01/02 06:27:34;;;;;;;23.15;15.30;;;;;;;;;;10106571;28;20052;-66
2023/01/02 06:32:28;;;;;;;28.08;15.90;;;;;;;;;;10105076;28;20049;-66
2023/01/02 06:37:22;;;;;;;23.10;15.43;;;;;;;;;;10101251;28;20470;-67
2023/01/02 06:42:16;;;;;;;21.52;14.75;;;;;;;;;;10106828;28;20056;-66
2023/01/02 06:47:10;;;;;;;25.70;15.27;;;;;;;;;;10105916;28;20509;-65
2023/01/02 06:52:04;;;;;;;29.15;15.88;;;;;;;;;;10093726;28;20068;-66
2023/01/02 06:56:57;;;;;;;19.02;13.57;;;;;;;;;;10129873;28;20280;-65
2023/01/02 07:01:51;;;;;;;28.23;14.73;;;;;;;;;;10108374;28;20056;-66
2023/01/02 07:06:45;;;;;;;30.10;14.65;;;;;;;;;;10106326;28;20057;-67
2023/01/02 07:11:38;;;;;;;27.10;16.65;;;;;;;;;;10125801;28;20127;-67
2023/01/02 07:16:32;;;;;;;19.85;13.80;;;;;;;;;;10115260;28;20409;-67
2023/01/02 07:21:26;;;;;;;20.52;12.93;;;;;;;;;;10117371;28;20124;-66
2023/01/02 07:26:19;;;;;;;20.05;12.95;;;;;;;;;;10114775;28;20045;-67
2023/01/02 07:31:15;;;;;;;20.98;12.80;;;;;;;;;;10111573;28;20056;-67
2023/01/02 07:36:16;;;;;;;19.70;12.73;;;;;;;;;;10110991;28;20068;-67
2023/01/02 07:41:14;;;;;;;20.45;13.52;;;;;;;;;;10123552;28;20044;-67
2023/01/02 07:46:08;;;;;;;18.92;12.73;;;;;;;;;;10108750;28;20417;-67
2023/01/02 07:51:05;;;;;;;18.98;12.80;;;;;;;;;;10105673;28;20087;-67
2023/01/02 07:56:01;;;;;;;22.60;14.13;;;;;;;;;;10097359;28;20417;-67
2023/01/02 08:00:54;;;;;;;19.08;13.48;;;;;;;;;;10105757;28;20049;-67
2023/01/02 08:06:22;;;;;;;19.08;13.43;;;;;;;;;;10106407;28;20055;-68
2023/01/02 08:11:18;;;;;;;21.83;12.70;;;;;;;;;;10105964;28;20060;-67
2023/01/02 08:16:13;;;;;;;21.17;14.18;;;;;;;;;;10105236;28;20115;-65
2023/01/02 08:21:06;;;;;;;22.52;15.85;;;;;;;;;;10106945;28;20056;-80
2023/01/02 08:26:05;;;;;;;21.92;14.57;;;;;;;;;;10113951;28;20501;-77
2023/01/02 08:30:59;;;;;;;22.02;13.68;;;;;;;;;;10108974;28;20090;-77
2023/01/02 08:35:53;;;;;;;24.55;14.40;;;;;;;;;;10112280;28;20429;-77
2023/01/02 08:40:46;;;;;;;19.88;12.82;;;;;;;;;;10121816;28;20095;-73
2023/01/02 08:45:39;;;;;;;21.20;14.68;;;;;;;;;;10114130;28;20429;-74
2023/01/02 08:50:32;;;;;;;17.20;13.05;;;;;;;;;;10125844;28;20128;-73
2023/01/02 08:55:25;;;;;;;19.17;14.18;;;;;;;;;;10114759;28;20075;-72
2023/01/02 09:00:19;;;;;;;19.08;12.10;;;;;;;;;;10114625;28;20060;-73
2023/01/02 09:05:11;;;;;;;20.95;12.85;;;;;;;;;;10116367;28;20156;-71
2023/01/02 09:10:08;;;;;;;25.52;14.68;;;;;;;;;;10116457;28;20075;-70
2023/01/02 09:15:03;;;;;;;20.92;14.35;;;;;;;;;;10113553;28;20048;-75
2023/01/02 09:19:56;;;;;;;20.30;15.85;;;;;;;;;;10117739;28;20059;-70
2023/01/02 09:24:50;;;;;;;24.48;14.70;;;;;;;;;;10115551;28;20099;-71
2023/01/02 09:29:44;;;;;;;25.50;15.98;;;;;;;;;;10109068;28;20128;-71
2023/01/02 09:34:37;;;;;;;28.63;16.73;;;;;;;;;;10107980;28;20080;-71
2023/01/02 09:39:31;;;;;;;34.65;18.98;;;;;;;;;;10112214;28;20132;-72
2023/01/02 09:44:36;;;;;;;35.08;21.27;;;;;;;;;;10119310;28;20390;-73
2023/01/02 09:49:50;;;;;;;33.97;21.17;;;;;;;;;;10100238;28;20052;-71
2023/01/02 09:55:04;;;;;;;43.33;23.23;;;;;;;;;;10105931;28;20061;-70
2023/01/02 10:00:09;;;;;;;36.97;22.00;;;;;;;;;;10108193;28;20494;-69
2023/01/02 10:05:02;;;;;;;31.77;20.73;;;;;;;;;;10116412;28;20059;-70
2023/01/02 10:10:08;;;;;;;27.30;18.60;;;;;;;;;;10111949;28;20441;-71
2023/01/02 10:15:05;;;;;;;27.02;18.15;;;;;;;;;;10128789;28;20127;-71
2023/01/02 10:20:02;;;;;;;25.27;19.08;;;;;;;;;;10094902;28;20059;-70
2023/01/02 10:25:17;;;;;;;19.98;16.02;;;;;;;;;;10108074;28;20515;-71
2023/01/02 10:30:22;;;;;;;20.52;14.32;;;;;;;;;;10102439;28;20463;-71
2023/01/02 10:35:28;;;;;;;19.63;14.63;;;;;;;;;;10098655;28;20409;-70
2023/01/02 10:40:23;;;;;;;16.95;13.35;;;;;;;;;;10101907;28;20477;-71
2023/01/02 10:45:19;;;;;;;21.70;14.73;;;;;;;;;;10095170;28;20144;-71
2023/01/02 10:50:20;;;;;;;18.52;14.10;;;;;;;;;;10114033;28;20465;-71
2023/01/02 10:55:27;;;;;;;16.67;13.73;;;;;;;;;;10109267;28;20045;-71
2023/01/02 11:00:29;;;;;;;20.75;15.00;;;;;;;;;;10101887;28;20139;-71
2023/01/02 11:05:24;;;;;;;17.67;14.30;;;;;;;;;;10105105;28;20045;-71
2023/01/02 11:10:25;;;;;;;20.08;14.23;;;;;;;;;;10096379;28;20076;-71
2023/01/02 11:15:25;;;;;;;20.70;15.48;;;;;;;;;;10123117;28;20056;-71
2023/01/02 11:20:31;;;;;;;15.63;12.50;;;;;;;;;;10110723;28;20583;-71
2023/01/02 11:25:37;;;;;;;17.73;13.45;;;;;;;;;;10111216;28;20513;-71
2023/01/02 11:30:42;;;;;;;14.18;12.18;;;;;;;;;;10109077;28;20063;-72
2023/01/02 11:35:48;;;;;;;14.45;12.65;;;;;;;;;;10103539;28;20041;-72
2023/01/02 11:40:56;;;;;;;14.27;11.93;;;;;;;;;;10105196;28;20060;-71
2023/01/02 11:45:49;;;;;;;15.63;12.02;;;;;;;;;;10104489;28;20052;-70
2023/01/02 11:50:44;;;;;;;16.80;12.07;;;;;;;;;;10108213;28;20553;-70
2023/01/02 11:55:45;;;;;;;13.30;11.63;;;;;;;;;;10114516;28;20037;-74
2023/01/02 12:00:41;;;;;;;18.23;11.80;;;;;;;;;;10102554;28;20041;-74
2023/01/02 12:05:53;;;;;;;12.25;10.95;;;;;;;;;;10112934;28;20049;-74
2023/01/02 12:11:08;;;;;;;17.33;13.35;;;;;;;;;;10113344;28;20049;-74
2023/01/02 12:16:12;;;;;;;16.38;13.07;;;;;;;;;;10103161;28;20107;-73
2023/01/02 12:21:13;;;;;;;21.73;13.63;;;;;;;;;;10112415;28;20378;-74
2023/01/02 12:26:53;;;;;;;21.75;13.48;;;;;;;;;;10112284;28;20057;-75
2023/01/02 12:32:27;;;;;;;17.40;13.98;;;;;;;;;;10089467;28;20053;-75
2023/01/02 12:37:24;;;;;;;20.13;14.73;;;;;;;;;;10040551;28;20128;-74
2023/01/02 12:42:23;;;;;;;25.70;17.92;;;;;;;;;;10094721;28;20073;-74
2023/01/02 12:47:32;;;;;;;26.05;19.05;;;;;;;;;;10112184;28;20041;-73
2023/01/02 12:52:49;;;;;;;;;;;;;;;;;;10102966;28;20053;-73
2023/01/02 12:57:55;;;;;;;24.17;19.00;;;;;;;;;;10118442;28;19920;-74
2023/01/02 13:03:04;;;;;;;23.98;17.65;;;;;;;;;;10113675;28;20128;-74
2023/01/02 13:08:02;;;;;;;20.65;15.57;;;;;;;;;;10110769;28;20103;-74
2023/01/02 13:12:57;;;;;;;21.42;16.08;;;;;;;;;;10106381;28;20045;-75
2023/01/02 13:17:50;;;;;;;23.92;17.83;;;;;;;;;;10097851;28;20059;-76
2023/01/02 13:23:01;;;;;;;23.40;17.70;;;;;;;;;;10101916;28;20071;-76
2023/01/02 13:27:56;;;;;;;23.10;17.35;;;;;;;;;;10113760;28;20095;-76
2023/01/02 13:32:52;;;;;;;23.08;14.90;;;;;;;;;;10110869;28;20064;-76
2023/01/02 13:37:46;;;;;;;20.08;15.68;;;;;;;;;;10117210;28;20048;-76
2023/01/02 13:42:57;;;;;;;20.83;16.60;;;;;;;;;;10108658;28;20709;-76
2023/01/02 13:47:53;;;;;;;20.10;15.77;;;;;;;;;;10107755;28;20060;-77
2023/01/02 13:53:18;;;;;;;19.58;15.80;;;;;;;;;;10094651;28;20388;-76
2023/01/02 13:58:20;;;;;;;24.83;16.95;;;;;;;;;;10109690;28;20449;-76
2023/01/02 14:03:27;;;;;;;23.52;17.15;;;;;;;;;;10113932;28;20059;-76
2023/01/02 14:08:28;;;;;;;23.35;15.15;;;;;;;;;;10112863;28;20060;-75
2023/01/02 14:13:29;;;;;;;25.80;16.05;;;;;;;;;;10117271;28;20059;-76
2023/01/02 14:18:28;;;;;;;21.35;17.67;;;;;;;;;;10119531;28;20053;-76
2023/01/02 14:23:29;;;;;;;;;;;;;;;;;;10118330;28;20442;-76
2023/01/02 14:28:23;;;;;;;;;;;;;;;;;;10108155;28;19921;-75
2023/01/02 14:33:22;;;;;;;26.95;16.33;;;;;;;;;;10109591;28;19920;-76
2023/01/02 14:38:20;;;;;;;25.80;18.80;;;;;;;;;;10107438;28;20136;-75
2023/01/02 14:43:28;;;;;;;28.50;19.48;;;;;;;;;;10089614;28;20048;-75
2023/01/02 14:48:29;;;;;;;24.80;17.10;;;;;;;;;;10106580;28;20041;-76
2023/01/02 14:53:36;;;;;;;22.25;16.10;;;;;;;;;;10094128;28;20174;-75
2023/01/02 14:58:44;;;;;;;24.92;17.77;;;;;;;;;;10104283;28;20057;-76
2023/01/02 15:03:57;;;;;;;24.30;17.52;;;;;;;;;;10106828;28;20049;-76
2023/01/02 15:08:52;;;;;;;27.45;18.40;;;;;;;;;;10108405;28;20565;-76
2023/01/02 15:14:12;;;;;;;26.40;17.80;;;;;;;;;;10100102;28;20145;-75
2023/01/02 15:19:17;;;;;;;24.75;19.35;;;;;;;;;;10106742;28;20057;-76
2023/01/02 15:24:26;;;;;;;33.72;20.27;;;;;;;;;;10110886;28;20506;-76
2023/01/02 15:29:27;;;;;;;30.70;21.00;;;;;;;;;;10102854;28;20106;-75
2023/01/02 15:34:25;;;;;;;29.23;20.67;;;;;;;;;;10094637;28;20048;-75
2023/01/02 15:39:26;;;;;;;32.05;21.83;;;;;;;;;;10096111;28;20056;-75
2023/01/02 15:49:35;;;;;;;31.02;22.05;;;;;;;;;;10114837;28;20041;-75
2023/01/02 15:54:32;;;;;;;34.72;22.75;;;;;;;;;;10048586;28;20107;-73
2023/01/02 15:59:44;;;;;;;33.75;21.45;;;;;;;;;;10066338;28;20414;-71
2023/01/02 16:04:38;;;;;;;35.38;23.50;;;;;;;;;;10064798;28;20517;-71
2023/01/02 16:09:32;;;;;;;32.00;22.17;;;;;;;;;;10065356;28;20473;-71
2023/01/02 16:14:38;;;;;;;43.13;35.17;;;;;;;;;;10065233;28;20124;-72
2023/01/02 16:19:38;;;;;;;39.17;27.23;;;;;;;;;;10065881;28;20136;-71
2023/01/02 16:24:34;;;;;;;40.35;26.48;;;;;;;;;;10064754;28;20080;-71
2023/01/02 16:29:29;;;;;;;34.38;24.85;;;;;;;;;;10063938;28;20076;-72
2023/01/02 16:34:36;;;;;;;35.05;25.48;;;;;;;;;;10066867;28;20556;-72
2023/01/02 16:40:17;;;;;;;39.40;25.27;;;;;;;;;;10070072;28;20053;-71
2023/01/02 16:45:30;;;;;;;32.70;21.50;;;;;;;;;;10056363;28;20120;-71
2023/01/02 16:50:26;;;;;;;39.45;24.08;;;;;;;;;;10070805;28;20132;-71
2023/01/02 16:55:22;;;;;;;36.28;23.40;;;;;;;;;;10110708;28;20452;-71
2023/01/02 17:00:23;;;;;;;37.00;23.98;;;;;;;;;;10110907;28;20045;-71
2023/01/02 17:05:29;;;;;;;36.58;24.38;;;;;;;;;;10115089;28;20835;-71
2023/01/02 17:10:22;;;;;;;37.13;24.40;;;;;;;;;;10103038;28;20051;-71
2023/01/02 17:15:16;;;;;;;40.08;23.60;;;;;;;;;;10110933;28;20052;-71
2023/01/02 17:20:11;;;;;;;36.15;24.83;;;;;;;;;;10110793;28;20040;-71
2023/01/02 17:25:08;;;;;;;35.60;24.33;;;;;;;;;;10110559;28;20510;-71
2023/01/02 17:30:03;;;;;;;39.92;26.40;;;;;;;;;;10110655;28;20045;-71
2023/01/02 17:34:57;;;;;;;35.88;24.63;;;;;;;;;;10110100;28;20095;-69
2023/01/02 17:39:51;;;;;;;34.03;23.73;;;;;;;;;;10120064;28;20432;-71
2023/01/02 17:44:46;;;;;;;44.53;27.08;;;;;;;;;;10109734;28;20144;-71
2023/01/02 17:49:41;;;;;;;33.90;23.98;;;;;;;;;;10110174;28;20064;-70
2023/01/02 17:54:35;;;;;;;47.60;28.17;;;;;;;;;;10109547;28;20084;-73
2023/01/02 17:59:28;;;;;;;41.33;26.02;;;;;;;;;;10099213;28;20044;-71
2023/01/02 18:04:22;;;;;;;45.75;30.45;;;;;;;;;;10107649;28;20680;-72
2023/01/02 18:09:16;;;;;;;38.17;24.98;;;;;;;;;;10112594;28;20056;-73
2023/01/02 18:14:24;;;;;;;38.47;23.95;;;;;;;;;;10107654;28;20053;-72
2023/01/02 18:19:21;;;;;;;36.30;25.20;;;;;;;;;;10103465;28;20661;-73
2023/01/02 18:24:25;;;;;;;33.28;22.27;;;;;;;;;;10113285;28;20040;-73
2023/01/02 18:29:23;;;;;;;38.22;23.80;;;;;;;;;;10106938;28;20057;-73
2023/01/02 18:34:19;;;;;;;35.70;23.20;;;;;;;;;;10105212;28;20052;-73
2023/01/02 18:39:41;;;;;;;35.15;23.85;;;;;;;;;;10107705;28;20045;-73
2023/01/02 18:44:34;;;;;;;32.50;21.83;;;;;;;;;;10107371;28;20503;-74
2023/01/02 18:49:31;;;;;;;31.45;20.67;;;;;;;;;;10110097;28;20065;-74
2023/01/02 18:54:30;;;;;;;29.65;22.73;;;;;;;;;;10114579;28;20067;-73
2023/01/02 18:59:30;;;;;;;29.38;21.05;;;;;;;;;;10115216;28;20135;-72
2023/01/02 19:04:25;;;;;;;32.53;21.88;;;;;;;;;;10111107;28;20049;-72
2023/01/02 19:09:33;;;;;;;34.88;23.65;;;;;;;;;;10109265;28;20064;-72
2023/01/02 19:15:01;;;;;;;30.75;19.92;;;;;;;;;;10110104;28;20049;-72
2023/01/02 19:19:56;;;;;;;30.17;22.08;;;;;;;;;;10113951;28;20503;-74
2023/01/02 19:24:50;;;;;;;31.35;21.23;;;;;;;;;;10108380;28;20126;-74
2023/01/02 19:29:47;;;;;;;33.58;22.23;;;;;;;;;;10105438;28;20155;-73
2023/01/02 19:34:51;;;;;;;34.53;25.25;;;;;;;;;;10106858;28;20118;-79
2023/01/02 19:40:07;;;;;;;39.70;27.08;;;;;;;;;;10103470;28;20053;-78
2023/01/02 19:45:20;;;;;;;33.53;25.73;;;;;;;;;;10106642;28;20099;-75
2023/01/02 19:50:17;;;;;;;37.17;25.35;;;;;;;;;;10112220;28;20048;-75
2023/01/02 19:55:12;;;;;;;28.42;22.50;;;;;;;;;;10108053;28;20057;-75
2023/01/02 20:00:11;;;;;;;36.17;24.45;;;;;;;;;;10107777;28;20563;-75
2023/01/02 20:05:06;;;;;;;36.75;25.48;;;;;;;;;;10126618;28;20494;-77
2023/01/02 20:10:01;;;;;;;32.75;26.52;;;;;;;;;;10114255;28;20496;-76
2023/01/02 20:14:59;;;;;;;34.28;24.95;;;;;;;;;;10116696;28;20071;-65
2023/01/02 20:19:55;;;;;;;34.70;25.60;;;;;;;;;;10133790;28;20053;-64
2023/01/02 20:24:49;;;;;;;36.28;23.80;;;;;;;;;;10129313;28;20040;-67
2023/01/02 20:29:43;;;;;;;32.08;24.75;;;;;;;;;;10121901;28;20083;-72
2023/01/02 20:34:37;;;;;;;30.70;24.13;;;;;;;;;;10111508;28;20045;-72
2023/01/02 20:39:31;;;;;;;38.00;26.08;;;;;;;;;;10134986;28;20044;-72
2023/01/02 20:44:25;;;;;;;37.05;23.30;;;;;;;;;;10111169;28;20067;-72
2023/01/02 20:49:18;;;;;;;30.83;23.67;;;;;;;;;;10118062;28;20102;-66
2023/01/02 20:54:12;;;;;;;33.80;23.58;;;;;;;;;;10118757;28;20059;-68
2023/01/02 20:59:07;;;;;;;35.22;26.08;;;;;;;;;;10113807;28;20563;-66
2023/01/02 21:04:00;;;;;;;46.53;30.45;;;;;;;;;;10115752;28;20410;-67
2023/01/02 21:08:54;;;;;;;36.53;23.83;;;;;;;;;;10108911;28;20821;-67
2023/01/02 21:13:48;;;;;;;34.60;26.08;;;;;;;;;;10112065;28;20049;-67
2023/01/02 21:18:43;;;;;;;38.20;25.23;;;;;;;;;;10140293;28;20060;-68
2023/01/02 21:23:40;;;;;;;39.05;27.58;;;;;;;;;;10118459;28;20504;-67
2023/01/02 21:28:33;;;;;;;42.28;28.75;;;;;;;;;;10117689;28;20125;-66
2023/01/02 21:33:28;;;;;;;40.95;29.92;;;;;;;;;;10107627;28;20147;-65
2023/01/02 21:38:22;;;;;;;40.50;29.40;;;;;;;;;;10123063;28;20040;-66
2023/01/02 21:43:15;;;;;;;41.10;29.45;;;;;;;;;;10115642;28;20044;-66
2023/01/02 21:48:08;;;;;;;46.85;30.38;;;;;;;;;;10104572;28;20490;-66
2023/01/02 21:53:02;;;;;;;42.80;30.58;;;;;;;;;;10109144;28;20425;-65
2023/01/02 21:57:59;;;;;;;47.95;31.30;;;;;;;;;;10118680;28;20041;-66
2023/01/02 22:03:10;;;;;;;44.65;29.55;;;;;;;;;;10100938;28;20045;-65
2023/01/02 22:08:05;;;;;;;38.78;28.55;;;;;;;;;;10104599;28;20107;-65
2023/01/02 22:12:59;;;;;;;38.50;26.40;;;;;;;;;;10103597;28;20053;-64
2023/01/02 22:17:53;;;;;;;37.67;24.90;;;;;;;;;;10118582;28;20440;-65
2023/01/02 22:22:46;;;;;;;34.25;25.83;;;;;;;;;;10109234;28;20056;-65
2023/01/02 22:27:40;;;;;;;38.00;25.25;;;;;;;;;;10118620;28;20044;-65
2023/01/02 22:32:34;;;;;;;51.38;28.80;;;;;;;;;;10112393;28;20049;-65
2023/01/02 22:37:27;;;;;;;49.45;28.15;;;;;;;;;;10107064;28;20103;-65
2023/01/02 22:48:02;;;;;;;39.78;25.30;;;;;;;;;;10113936;28;20053;-65
2023/01/02 22:52:56;;;;;;;41.45;25.05;;;;;;;;;;10099814;28;20059;-64
2023/01/02 22:57:49;;;;;;;37.60;24.88;;;;;;;;;;10106447;28;20051;-65
2023/01/02 23:02:44;;;;;;;38.97;26.45;;;;;;;;;;10120785;28;20049;-65
2023/01/02 23:07:38;;;;;;;34.92;24.33;;;;;;;;;;10106226;28;20084;-65
2023/01/02 23:12:32;;;;;;;32.03;23.75;;;;;;;;;;10106112;28;20048;-65
2023/01/02 23:22:38;;;;;;;34.50;22.73;;;;;;;;;;10127850;28;20045;-65
2023/01/02 23:27:32;;;;;;;40.05;25.48;;;;;;;;;;10124512;28;20113;-65
2023/01/02 23:32:26;;;;;;;41.20;23.63;;;;;;;;;;10116086;28;20531;-65
2023/01/02 23:37:19;;;;;;;39.90;26.85;;;;;;;;;;10113931;28;20049;-65
2023/01/02 23:42:13;;;;;;;45.08;26.55;;;;;;;;;;10110622;28;20452;-65
2023/01/02 23:47:07;;;;;;;49.38;29.42;;;;;;;;;;10113220;28;20056;-65
2023/01/02 23:52:09;;;;;;;42.22;24.58;;;;;;;;;;10122010;28;20139;-65
2023/01/02 23:57:03;;;;;;;44.58;26.88;;;;;;;;;;10118537;28;20057;-65
